Terminal Aerodrome Forecast
Issued by NWS

Home | Current Version | Previous Version | Text Only | Print | Product List | Glossary On
Versions: 1 2 3 4 5 6 7 8 9 10 11 12
000
FTUS43 KJKL 151700
TAFSME
TAF
KSME 151740Z 1518/1618 25004KT P6SM SCT020 BKN250
     FM160600 29004KT P6SM BKN025 OVC250
     FM161000 32004KT P6SM VCSH OVC025
     FM161500 VRB03KT P6SM SCT025 BKN050
      AMD NOT SKED=

USA.gov is the U.S. government's official web portal to all federal, state and local government web resources and services.